createdAt,value
2022-12-04T07:00:16.353Z,38.30
2022-12-04T07:02:44.199Z,37.00
2022-12-04T07:05:12.064Z,38.80
2022-12-04T07:07:39.903Z,32.30
2022-12-04T07:10:08.286Z,36.70
2022-12-04T07:12:36.046Z,36.70
2022-12-04T07:15:04.092Z,46.30
2022-12-04T07:17:31.879Z,43.60
2022-12-04T07:19:59.640Z,38.90
2022-12-04T07:22:27.403Z,41.60
2022-12-04T07:24:55.136Z,39.70
2022-12-04T07:27:22.840Z,37.00
2022-12-04T07:29:53.272Z,38.30
2022-12-04T07:32:21.096Z,43.50
2022-12-04T07:34:48.800Z,49.10
2022-12-04T07:37:16.515Z,43.20
2022-12-04T07:39:44.522Z,50.10
2022-12-04T07:42:12.274Z,44.30
2022-12-04T07:44:39.963Z,40.40
2022-12-04T07:47:07.804Z,43.00
2022-12-04T07:49:35.636Z,43.20
2022-12-04T07:52:03.451Z,33.80
2022-12-04T07:54:31.698Z,45.00
2022-12-04T07:56:59.474Z,41.60
2022-12-04T07:59:27.143Z,43.00
2022-12-04T08:01:55.397Z,37.40
2022-12-04T08:04:23.392Z,39.40
2022-12-04T08:06:51.150Z,44.60
2022-12-04T08:09:18.898Z,41.00
2022-12-04T08:11:46.663Z,41.20
2022-12-04T08:14:15.038Z,45.40
2022-12-04T08:16:48.190Z,41.40
2022-12-04T08:19:18.861Z,44.60
2022-12-04T08:21:46.623Z,41.70
2022-12-04T08:24:14.687Z,40.00
2022-12-04T08:26:42.868Z,46.50
2022-12-04T08:29:11.240Z,44.00
2022-12-04T08:31:39.243Z,42.10
2022-12-04T08:34:07.782Z,41.80
2022-12-04T08:36:36.033Z,37.00
2022-12-04T08:39:04.686Z,45.20
2022-12-04T08:41:32.941Z,41.30
2022-12-04T08:44:01.139Z,43.40
2022-12-04T08:46:29.428Z,40.70
2022-12-04T08:48:58.004Z,40.90
2022-12-04T08:51:31.398Z,47.00
2022-12-04T08:54:03.626Z,43.20
2022-12-04T08:56:32.670Z,38.50
2022-12-04T08:59:01.461Z,49.00
2022-12-04T09:01:29.859Z,41.40
2022-12-04T09:03:58.321Z,43.50
2022-12-04T09:06:26.223Z,41.10
2022-12-04T09:08:55.974Z,31.30
2022-12-04T09:11:27.694Z,40.50
2022-12-04T09:13:56.101Z,42.20
2022-12-04T09:16:25.889Z,45.90
2022-12-04T09:18:54.599Z,44.40
2022-12-04T09:21:24.364Z,49.00
2022-12-04T09:23:52.159Z,42.60
2022-12-04T09:26:31.781Z,42.60
2022-12-04T09:29:01.955Z,44.00
2022-12-04T09:31:30.589Z,44.70
2022-12-04T09:33:59.576Z,37.70
2022-12-04T09:36:28.258Z,48.20
2022-12-04T09:38:57.873Z,42.80
2022-12-04T09:41:37.433Z,32.90
2022-12-04T09:44:27.889Z,39.00
2022-12-04T09:49:47.825Z,44.80
2022-12-04T09:52:57.446Z,45.00
2022-12-04T09:55:45.811Z,31.50
2022-12-04T09:58:17.883Z,37.30
2022-12-04T10:00:50.126Z,41.30
2022-12-04T10:03:20.629Z,37.50
2022-12-04T10:06:04.415Z,39.70
2022-12-04T10:08:39.627Z,36.10
2022-12-04T10:11:31.987Z,39.80
2022-12-04T10:14:26.675Z,38.70
2022-12-04T10:17:45.623Z,39.40
2022-12-04T10:20:22.784Z,38.50
2022-12-04T10:23:13.892Z,35.50
2022-12-04T10:25:43.850Z,41.30
2022-12-04T10:28:23.798Z,36.30
2022-12-04T10:30:55.443Z,33.00
2022-12-04T10:33:37.021Z,36.10
2022-12-04T10:36:06.169Z,34.90
2022-12-04T10:38:49.646Z,31.70
2022-12-04T10:41:34.569Z,39.40
2022-12-04T10:44:02.724Z,40.40
2022-12-04T10:46:33.826Z,29.80
2022-12-04T10:49:19.002Z,30.60
2022-12-04T10:51:57.221Z,32.90
2022-12-04T10:54:40.749Z,30.90
2022-12-04T10:57:16.470Z,32.70
2022-12-04T10:59:57.481Z,26.80
2022-12-04T11:02:33.173Z,30.00
2022-12-04T11:05:05.272Z,30.70
2022-12-04T11:07:46.034Z,33.40
2022-12-04T11:10:32.879Z,28.90
2022-12-04T11:13:07.794Z,38.20
2022-12-04T11:15:46.976Z,31.50
2022-12-04T11:18:22.589Z,28.30
2022-12-04T11:21:15.956Z,23.40
2022-12-04T11:23:50.769Z,29.30
2022-12-04T11:26:34.547Z,29.70
2022-12-04T11:29:05.401Z,32.60
2022-12-04T11:31:34.611Z,23.90
2022-12-04T11:34:07.923Z,32.90
2022-12-04T11:36:41.288Z,24.70
2022-12-04T11:39:18.024Z,25.50
2022-12-04T11:41:46.317Z,32.10
2022-12-04T11:44:26.437Z,26.40
2022-12-04T11:46:57.049Z,24.50
2022-12-04T11:49:26.564Z,31.50
2022-12-04T11:52:20.910Z,25.80
2022-12-04T11:54:48.597Z,26.70
2022-12-04T11:57:28.324Z,24.00
2022-12-04T12:00:28.806Z,28.30
2022-12-04T12:03:25.496Z,24.60
2022-12-04T12:06:15.104Z,25.20
2022-12-04T12:08:45.553Z,23.40
2022-12-04T12:11:20.146Z,26.10
2022-12-04T12:14:06.864Z,26.40
2022-12-04T12:17:02.169Z,28.90
2022-12-04T12:19:33.110Z,25.40
2022-12-04T12:22:05.518Z,25.70
2022-12-04T12:24:42.836Z,25.40
2022-12-04T12:27:48.147Z,22.50
2022-12-04T12:30:21.420Z,27.10
2022-12-04T12:33:01.372Z,26.40
2022-12-04T12:35:51.849Z,19.80
2022-12-04T12:41:01.841Z,23.60
2022-12-04T12:43:33.030Z,21.40
2022-12-04T12:46:10.411Z,28.40
2022-12-04T12:48:58.092Z,26.00
2022-12-04T12:51:30.973Z,19.40
2022-12-04T12:54:12.355Z,23.60
2022-12-04T12:56:49.599Z,24.10
2022-12-04T12:59:22.663Z,24.50
2022-12-04T13:02:00.994Z,22.30
2022-12-04T13:04:38.925Z,27.60
2022-12-04T13:07:18.906Z,26.30
2022-12-04T13:09:53.888Z,24.40
2022-12-04T13:12:23.928Z,22.90
2022-12-04T13:14:52.096Z,20.40
2022-12-04T13:17:40.444Z,21.20
2022-12-04T13:20:20.192Z,25.90
2022-12-04T13:22:55.640Z,24.30
2022-12-04T13:25:49.144Z,23.70
2022-12-04T13:28:36.652Z,20.30
2022-12-04T13:31:31.413Z,24.80
2022-12-04T13:34:05.160Z,23.10
2022-12-04T13:36:57.685Z,25.50
2022-12-04T13:40:17.580Z,24.10
2022-12-04T13:42:45.982Z,26.20
2022-12-04T13:45:32.085Z,26.50
2022-12-04T13:48:02.120Z,25.50
2022-12-04T13:50:35.732Z,23.20
2022-12-04T13:53:04.733Z,25.70
2022-12-04T13:55:38.063Z,22.00
2022-12-04T13:58:11.787Z,25.30
2022-12-04T14:00:43.027Z,23.10
2022-12-04T14:03:33.990Z,26.10
2022-12-04T14:06:05.529Z,28.60
2022-12-04T14:08:41.020Z,26.90
2022-12-04T14:11:18.565Z,22.80
2022-12-04T14:13:52.768Z,25.60
2022-12-04T14:16:42.294Z,22.00
2022-12-04T14:19:27.788Z,21.60
2022-12-04T14:21:55.911Z,26.60
2022-12-04T14:24:32.949Z,28.20
2022-12-04T14:27:11.774Z,32.70
2022-12-04T14:29:47.605Z,30.10
2022-12-04T14:32:32.177Z,24.10
2022-12-04T14:35:01.378Z,29.80
2022-12-04T14:37:40.734Z,24.20
2022-12-04T14:40:20.659Z,27.20
2022-12-04T14:42:50.214Z,25.10
2022-12-04T14:45:22.023Z,29.30
2022-12-04T14:47:52.857Z,23.10
2022-12-04T14:50:32.168Z,26.60
2022-12-04T14:53:15.509Z,24.30
2022-12-04T14:56:25.382Z,26.10
2022-12-04T14:58:53.513Z,25.50
2022-12-04T15:01:28.620Z,21.50
2022-12-04T15:04:05.363Z,25.50
2022-12-04T15:06:34.042Z,26.70
2022-12-04T15:09:22.998Z,28.40
2022-12-04T15:12:17.431Z,23.90
2022-12-04T15:14:48.019Z,28.20
2022-12-04T15:17:17.676Z,21.90
2022-12-04T15:19:46.079Z,25.20
2022-12-04T15:22:26.609Z,25.40
2022-12-04T15:24:55.683Z,28.10
2022-12-04T15:27:31.908Z,28.20
2022-12-04T15:30:02.825Z,32.30
2022-12-04T15:32:32.121Z,24.70
2022-12-04T15:35:09.287Z,22.80
2022-12-04T15:37:38.037Z,27.50
2022-12-04T15:40:08.219Z,28.90
2022-12-04T15:42:36.013Z,27.40
2022-12-04T15:45:09.660Z,27.10
2022-12-04T15:47:39.058Z,27.20
2022-12-04T15:50:15.661Z,23.50
2022-12-04T15:52:56.319Z,27.40
2022-12-04T15:55:25.591Z,31.40
2022-12-04T15:57:59.883Z,25.60
2022-12-04T16:00:37.915Z,28.00
2022-12-04T16:03:21.615Z,30.70
2022-12-04T16:05:49.513Z,22.20
2022-12-04T16:08:32.870Z,24.10
2022-12-04T16:11:21.465Z,28.30
2022-12-04T16:14:03.264Z,28.20
2022-12-04T16:16:31.902Z,26.90
2022-12-04T16:19:05.711Z,25.40
2022-12-04T16:21:34.422Z,27.60
2022-12-04T16:24:03.476Z,25.80
2022-12-04T16:26:31.658Z,27.80
2022-12-04T16:28:59.664Z,26.30
2022-12-04T16:31:27.793Z,27.80
2022-12-04T16:33:55.814Z,26.20
2022-12-04T16:36:25.012Z,26.70
2022-12-04T16:38:53.438Z,25.40
2022-12-04T16:41:21.848Z,25.70
2022-12-04T16:43:56.130Z,27.70
2022-12-04T16:46:27.210Z,31.10
2022-12-04T16:48:55.938Z,34.70
2022-12-04T16:51:25.717Z,30.90
2022-12-04T16:53:54.636Z,32.10
2022-12-04T16:56:22.805Z,27.20
2022-12-04T16:58:50.841Z,32.70
2022-12-04T17:01:25.478Z,31.80
2022-12-04T17:03:53.442Z,31.70
2022-12-04T17:06:21.576Z,34.20
2022-12-04T17:08:49.335Z,31.90
2022-12-04T17:11:17.872Z,29.50
2022-12-04T17:13:45.870Z,27.50
2022-12-04T17:16:15.146Z,24.30
2022-12-04T17:18:44.647Z,29.60
2022-12-04T17:21:13.745Z,27.60
2022-12-04T17:23:42.831Z,23.30
2022-12-04T17:26:13.321Z,27.00
2022-12-04T17:28:42.299Z,29.10
2022-12-04T17:31:16.569Z,27.40
2022-12-04T17:33:44.973Z,26.20
2022-12-04T17:36:16.276Z,27.30
2022-12-04T17:38:44.728Z,25.70
2022-12-04T17:41:14.191Z,28.90
2022-12-04T17:43:43.356Z,30.50
2022-12-04T17:46:13.828Z,29.00
2022-12-04T17:48:41.787Z,29.60
2022-12-04T17:51:12.651Z,32.20
2022-12-04T17:53:41.183Z,28.70
2022-12-04T17:56:14.780Z,31.50
2022-12-04T17:58:42.735Z,27.30
2022-12-04T18:01:13.588Z,31.00
2022-12-04T18:03:47.267Z,27.70
2022-12-04T18:06:21.511Z,24.10
2022-12-04T18:08:50.558Z,28.50
2022-12-04T18:11:20.934Z,24.70
2022-12-04T18:13:53.373Z,27.70
2022-12-04T18:16:21.468Z,25.50
2022-12-04T18:18:50.833Z,25.00
2022-12-04T18:21:19.485Z,28.50
2022-12-04T18:23:47.389Z,25.00
2022-12-04T18:26:21.397Z,26.40
2022-12-04T18:28:49.933Z,27.00
2022-12-04T18:31:19.589Z,23.80
2022-12-04T18:33:47.776Z,25.20
2022-12-04T18:36:25.139Z,23.90
2022-12-04T18:38:55.726Z,22.60
2022-12-04T18:41:24.452Z,18.90
2022-12-04T18:43:53.264Z,24.20
2022-12-04T18:46:22.471Z,21.40
2022-12-04T18:48:53.863Z,20.60
2022-12-04T18:51:30.456Z,24.20
2022-12-04T18:54:05.084Z,24.00
2022-12-04T18:56:34.926Z,23.90
2022-12-04T18:59:11.060Z,21.90
2022-12-04T19:01:40.304Z,23.00
2022-12-04T19:04:10.680Z,26.60
2022-12-04T19:06:43.878Z,24.60
2022-12-04T19:09:14.735Z,25.30
2022-12-04T19:11:43.544Z,24.00
2022-12-04T19:14:22.438Z,25.30
2022-12-04T19:16:51.512Z,27.50
2022-12-04T19:19:19.815Z,22.50
2022-12-04T19:21:47.750Z,21.70
2022-12-04T19:24:15.666Z,25.60
2022-12-04T19:26:43.862Z,22.50
2022-12-04T19:29:14.033Z,25.50
2022-12-04T19:31:42.566Z,23.40
2022-12-04T19:34:10.520Z,25.10
2022-12-04T19:36:38.405Z,27.10
2022-12-04T19:39:07.331Z,22.50
2022-12-04T19:41:37.241Z,25.80
2022-12-04T19:44:20.002Z,27.80
2022-12-04T19:46:53.602Z,26.40
2022-12-04T19:49:21.633Z,26.20
2022-12-04T19:51:49.579Z,26.40
2022-12-04T19:54:17.878Z,20.60
2022-12-04T19:56:51.133Z,23.30
2022-12-04T19:59:20.462Z,21.20
2022-12-04T20:01:48.464Z,21.60
2022-12-04T20:04:16.588Z,23.00
2022-12-04T20:06:46.196Z,19.50
2022-12-04T20:09:18.770Z,21.70
2022-12-04T20:11:47.308Z,21.70
2022-12-04T20:14:15.467Z,22.20
2022-12-04T20:16:43.433Z,24.00
2022-12-04T20:19:14.956Z,22.30
2022-12-04T20:21:44.430Z,28.20
2022-12-04T20:24:15.281Z,24.30
2022-12-04T20:26:45.061Z,25.10
2022-12-04T20:29:15.312Z,26.80
2022-12-04T20:31:45.562Z,21.90
2022-12-04T20:34:17.191Z,23.90
2022-12-04T20:39:15.581Z,27.80
2022-12-04T20:41:43.358Z,25.10
2022-12-04T20:44:14.922Z,29.20
2022-12-04T20:46:43.651Z,28.40
2022-12-04T20:49:20.764Z,31.70
2022-12-04T20:51:52.063Z,31.10
2022-12-04T20:54:22.568Z,26.40
2022-12-04T20:56:53.079Z,31.00
2022-12-04T20:59:23.319Z,25.00
2022-12-04T21:01:52.149Z,30.10
2022-12-04T21:04:20.637Z,20.60
2022-12-04T21:06:48.597Z,27.30
2022-12-04T21:09:22.837Z,28.20
2022-12-04T21:11:52.900Z,25.60
2022-12-04T21:14:41.901Z,28.30
2022-12-04T21:17:14.479Z,22.10
2022-12-04T21:19:42.820Z,21.80
2022-12-04T21:22:10.741Z,25.90
2022-12-04T21:24:39.272Z,26.10
2022-12-04T21:27:09.389Z,27.00
2022-12-04T21:29:38.740Z,30.50
2022-12-04T21:32:07.275Z,32.20
2022-12-04T21:34:35.451Z,26.30
2022-12-04T21:37:03.715Z,27.00
2022-12-04T21:39:34.916Z,23.80
2022-12-04T21:44:49.381Z,24.80
2022-12-04T21:47:17.353Z,25.20
2022-12-04T21:49:45.624Z,26.80
2022-12-04T21:52:15.882Z,29.00
2022-12-04T21:54:43.786Z,27.50
2022-12-04T21:57:11.575Z,20.80
2022-12-04T21:59:39.303Z,29.40
